createdAt,value
2022-11-02T00:00:15.681Z,47
2022-11-02T00:15:02.322Z,46
2022-11-02T00:30:08.661Z,46
2022-11-02T00:45:02.708Z,46
2022-11-02T01:00:12.161Z,46
2022-11-02T01:15:02.390Z,45
2022-11-02T01:30:06.641Z,45
2022-11-02T01:45:02.647Z,45
2022-11-02T02:00:06.020Z,45
2022-11-02T02:15:04.119Z,45
2022-11-02T02:30:05.422Z,45
2022-11-02T02:45:02.988Z,45
2022-11-02T03:00:11.353Z,45
2022-11-02T03:15:03.264Z,45
2022-11-02T03:30:07.456Z,45
2022-11-02T03:45:03.280Z,45
2022-11-02T04:00:14.744Z,45
2022-11-02T04:15:03.096Z,45
2022-11-02T04:30:06.089Z,45
2022-11-02T04:45:02.372Z,45
2022-11-02T05:00:06.019Z,45
2022-11-02T05:15:02.008Z,46
2022-11-02T05:30:07.847Z,46
2022-11-02T05:45:02.717Z,46
2022-11-02T06:00:15.698Z,46
2022-11-02T06:15:03.291Z,46
2022-11-02T06:30:08.402Z,46
2022-11-02T06:45:02.559Z,46
2022-11-02T07:00:21.123Z,46
2022-11-02T07:15:02.541Z,46
2022-11-02T07:30:10.911Z,46
2022-11-02T07:45:04.805Z,46
2022-11-02T08:00:17.910Z,46
2022-11-02T08:15:07.884Z,46
2022-11-02T08:30:08.380Z,46
2022-11-02T08:45:03.045Z,46
2022-11-02T09:00:11.419Z,46
2022-11-02T09:15:03.475Z,46
2022-11-02T09:30:08.056Z,45
2022-11-02T09:45:05.581Z,45
2022-11-02T10:00:14.620Z,45
2022-11-02T10:15:05.169Z,45
2022-11-02T10:30:08.766Z,44
2022-11-02T10:45:01.970Z,44
2022-11-02T11:00:10.999Z,44
2022-11-02T11:15:47.794Z,43
2022-11-02T11:30:07.531Z,43
2022-11-02T11:45:02.951Z,43
2022-11-02T12:00:13.638Z,43
2022-11-02T12:15:07.311Z,43
2022-11-02T12:30:06.670Z,43
2022-11-02T12:45:03.651Z,43
2022-11-02T13:00:13.407Z,43
2022-11-02T13:15:11.869Z,43
2022-11-02T13:30:07.592Z,43
2022-11-02T13:45:02.904Z,43
2022-11-02T14:00:08.386Z,43
2022-11-02T14:15:02.738Z,43
2022-11-02T14:30:07.542Z,43
2022-11-02T14:45:02.768Z,43
2022-11-02T15:00:07.619Z,43
2022-11-02T15:15:04.242Z,43
2022-11-02T15:30:07.146Z,43
2022-11-02T15:45:33.799Z,43
2022-11-02T16:00:15.794Z,43
2022-11-02T16:15:02.303Z,43
2022-11-02T16:30:07.306Z,43
2022-11-02T16:45:02.567Z,43
2022-11-02T17:00:19.670Z,43
2022-11-02T17:15:03.351Z,43
2022-11-02T17:30:08.306Z,43
2022-11-02T17:45:03.724Z,42
2022-11-02T18:00:18.386Z,42
2022-11-02T18:15:02.933Z,42
2022-11-02T18:30:09.224Z,42
2022-11-02T18:45:04.930Z,42
2022-11-02T19:00:13.614Z,41
2022-11-02T19:15:05.600Z,41
2022-11-02T19:30:09.651Z,41
2022-11-02T19:45:02.535Z,41
2022-11-02T20:00:08.361Z,41
2022-11-02T20:15:02.539Z,41
2022-11-02T20:30:07.655Z,41
2022-11-02T20:45:03.375Z,41
2022-11-02T21:00:12.566Z,41
2022-11-02T21:15:02.895Z,40
2022-11-02T21:30:06.804Z,40
2022-11-02T21:45:03.136Z,40
2022-11-02T22:00:13.995Z,40
2022-11-02T22:15:02.776Z,40
2022-11-02T22:30:06.435Z,39
2022-11-02T22:45:04.539Z,39
2022-11-02T23:00:06.215Z,39
2022-11-02T23:15:02.019Z,39
2022-11-02T23:30:09.034Z,39
2022-11-02T23:45:02.357Z,38
